createdAt,value
2022-12-08T00:02:13.898Z,1.34
2022-12-08T00:04:59.286Z,1.41
2022-12-08T00:07:44.179Z,1.44
2022-12-08T00:10:46.720Z,1.42
2022-12-08T00:12:57.195Z,1.51
2022-12-08T00:15:23.703Z,1.34
2022-12-08T00:17:50.179Z,1.18
2022-12-08T00:20:16.869Z,1.15
2022-12-08T00:22:43.293Z,1.24
2022-12-08T00:25:09.890Z,1.09
2022-12-08T00:27:36.518Z,1.08
2022-12-08T00:30:03.078Z,1.04
2022-12-08T00:32:29.722Z,1.32
2022-12-08T00:34:56.160Z,1.29
2022-12-08T00:37:22.664Z,1.20
2022-12-08T00:39:49.180Z,1.26
2022-12-08T00:42:15.850Z,1.27
2022-12-08T00:44:44.699Z,1.41
2022-12-08T00:47:12.870Z,1.06
2022-12-08T00:49:39.848Z,0.98
2022-12-08T00:52:06.502Z,0.94
2022-12-08T00:54:33.039Z,0.83
2022-12-08T00:56:59.615Z,1.13
2022-12-08T00:59:26.090Z,1.20
2022-12-08T01:01:52.734Z,1.23
2022-12-08T01:04:19.890Z,1.16
2022-12-08T01:06:46.694Z,0.98
2022-12-08T01:09:14.768Z,0.98
2022-12-08T01:11:41.914Z,1.18
2022-12-08T01:14:08.500Z,1.17
2022-12-08T01:16:36.874Z,1.17
2022-12-08T01:19:04.452Z,0.98
2022-12-08T01:21:30.955Z,1.16
2022-12-08T01:24:00.127Z,1.16
2022-12-08T01:26:26.692Z,1.18
2022-12-08T01:28:53.251Z,1.28
2022-12-08T01:31:21.756Z,1.34
2022-12-08T01:33:49.317Z,1.17
2022-12-08T01:36:24.686Z,1.18
2022-12-08T01:38:51.984Z,1.19
2022-12-08T01:41:20.919Z,1.19
2022-12-08T01:43:56.427Z,1.24
2022-12-08T01:46:23.849Z,1.13
2022-12-08T01:48:58.960Z,0.97
2022-12-08T01:51:26.134Z,1.02
2022-12-08T01:53:53.020Z,1.17
2022-12-08T01:56:37.727Z,1.19
2022-12-08T01:59:04.308Z,1.02
2022-12-08T02:01:30.785Z,1.15
2022-12-08T02:03:59.680Z,1.15
2022-12-08T02:06:28.659Z,1.06
2022-12-08T02:08:55.961Z,1.10
2022-12-08T02:11:22.562Z,0.94
2022-12-08T02:13:52.934Z,0.92
2022-12-08T02:16:34.674Z,0.97
2022-12-08T02:19:31.136Z,0.93
2022-12-08T02:21:58.108Z,1.10
2022-12-08T02:24:37.100Z,1.16
2022-12-08T02:27:09.736Z,1.16
2022-12-08T02:30:00.919Z,1.02
2022-12-08T02:33:01.320Z,0.87
2022-12-08T02:35:32.188Z,0.92
2022-12-08T02:38:25.356Z,0.89
2022-12-08T02:41:03.776Z,0.93
2022-12-08T02:43:39.599Z,0.76
2022-12-08T02:46:11.434Z,0.83
2022-12-08T02:48:38.506Z,1.00
2022-12-08T02:51:05.557Z,1.15
2022-12-08T02:53:35.117Z,1.02
2022-12-08T02:56:11.105Z,0.96
2022-12-08T02:58:46.851Z,1.01
2022-12-08T03:01:44.780Z,1.06
2022-12-08T03:04:26.492Z,0.96
2022-12-08T03:07:07.448Z,0.86
2022-12-08T03:09:43.646Z,0.91
2022-12-08T03:12:14.744Z,0.99
2022-12-08T03:14:47.093Z,1.00
2022-12-08T03:17:16.996Z,1.07
2022-12-08T03:19:45.992Z,1.07
2022-12-08T03:22:14.973Z,0.95
2022-12-08T03:24:44.898Z,0.90
2022-12-08T03:27:16.786Z,0.91
2022-12-08T03:29:43.764Z,0.90
2022-12-08T03:32:23.490Z,0.86
2022-12-08T03:34:51.652Z,0.64
2022-12-08T03:37:18.290Z,0.61
2022-12-08T03:39:45.019Z,0.90
2022-12-08T03:42:11.742Z,0.85
2022-12-08T03:44:38.151Z,0.83
2022-12-08T03:47:04.765Z,0.95
2022-12-08T03:49:31.285Z,0.78
2022-12-08T03:51:57.769Z,0.88
2022-12-08T03:54:24.414Z,0.90
2022-12-08T03:56:50.910Z,0.89
2022-12-08T03:59:17.419Z,0.86
2022-12-08T04:01:43.938Z,0.76
2022-12-08T04:04:10.416Z,0.62
2022-12-08T04:06:36.977Z,0.57
2022-12-08T04:09:03.747Z,0.65
2022-12-08T04:11:30.261Z,0.79
2022-12-08T04:13:56.777Z,0.68
2022-12-08T04:16:25.249Z,0.67
2022-12-08T04:18:52.347Z,0.79
2022-12-08T04:21:19.371Z,0.84
2022-12-08T04:23:46.406Z,0.75
2022-12-08T04:26:13.814Z,0.80
2022-12-08T04:28:40.264Z,0.88
2022-12-08T04:31:06.908Z,0.58
2022-12-08T04:33:35.158Z,0.53
2022-12-08T04:36:02.704Z,0.55
2022-12-08T04:38:29.265Z,0.57
2022-12-08T04:40:55.716Z,0.85
2022-12-08T04:43:22.188Z,0.80
2022-12-08T04:45:48.715Z,0.87
2022-12-08T04:48:15.496Z,0.98
2022-12-08T04:50:43.679Z,0.73
2022-12-08T04:53:11.885Z,0.61
2022-12-08T04:55:44.112Z,0.47
2022-12-08T04:58:15.783Z,0.56
2022-12-08T05:00:42.802Z,0.51
2022-12-08T05:03:09.926Z,0.50
2022-12-08T05:05:36.529Z,0.53
2022-12-08T05:08:03.334Z,0.47
2022-12-08T05:10:29.990Z,0.42
2022-12-08T05:12:58.286Z,0.52
2022-12-08T05:15:24.906Z,0.60
2022-12-08T05:17:51.379Z,0.53
2022-12-08T05:20:18.101Z,0.52
2022-12-08T05:22:44.600Z,0.48
2022-12-08T05:25:12.202Z,0.60
2022-12-08T05:27:38.711Z,0.64
2022-12-08T05:30:06.303Z,0.65
2022-12-08T05:32:32.948Z,0.86
2022-12-08T05:34:59.444Z,0.80
2022-12-08T05:37:25.975Z,0.74
2022-12-08T05:39:52.489Z,0.48
2022-12-08T05:42:24.436Z,0.57
2022-12-08T05:44:51.342Z,0.54
2022-12-08T05:47:17.898Z,0.65
2022-12-08T05:49:44.971Z,0.70
2022-12-08T05:52:11.581Z,0.54
2022-12-08T05:54:38.590Z,0.36
2022-12-08T05:57:05.100Z,0.54
2022-12-08T05:59:31.598Z,0.46
2022-12-08T06:01:58.141Z,0.33
2022-12-08T06:04:24.651Z,0.24
2022-12-08T06:06:51.090Z,0.22
2022-12-08T06:09:17.476Z,0.32
2022-12-08T06:11:46.409Z,0.34
2022-12-08T06:14:12.984Z,0.35
2022-12-08T06:16:40.011Z,0.29
2022-12-08T06:19:06.650Z,0.24
2022-12-08T06:21:33.126Z,0.33
2022-12-08T06:23:59.708Z,0.52
2022-12-08T06:26:26.220Z,0.56
2022-12-08T06:28:52.785Z,0.39
2022-12-08T06:31:23.053Z,0.30
2022-12-08T06:33:50.193Z,0.20
2022-12-08T06:36:18.507Z,0.35
2022-12-08T06:38:45.122Z,0.53
2022-12-08T06:41:12.719Z,0.34
2022-12-08T06:43:39.518Z,0.43
2022-12-08T06:46:09.472Z,0.47
2022-12-08T06:48:36.164Z,0.50
2022-12-08T06:51:14.424Z,0.63
2022-12-08T06:53:42.182Z,0.55
2022-12-08T06:56:09.683Z,0.66
2022-12-08T06:58:36.612Z,0.61
2022-12-08T07:01:09.684Z,0.59
2022-12-08T07:03:36.804Z,0.50
2022-12-08T07:06:04.408Z,0.30
2022-12-08T07:08:32.235Z,0.35
2022-12-08T07:10:59.095Z,0.34
2022-12-08T07:13:25.616Z,0.32
2022-12-08T07:15:52.254Z,0.26
2022-12-08T07:18:18.813Z,0.48
2022-12-08T07:20:45.385Z,0.64
2022-12-08T07:23:11.942Z,0.66
2022-12-08T07:25:38.366Z,0.76
2022-12-08T07:28:09.325Z,0.89
2022-12-08T07:30:35.815Z,0.86
2022-12-08T07:33:04.534Z,0.79
2022-12-08T07:35:31.031Z,0.92
2022-12-08T07:37:57.765Z,1.04
2022-12-08T07:40:24.403Z,1.05
2022-12-08T07:42:50.909Z,1.10
2022-12-08T07:45:18.592Z,1.08
2022-12-08T07:47:45.026Z,0.98
2022-12-08T07:50:12.149Z,0.90
2022-12-08T07:52:38.617Z,0.80
2022-12-08T07:55:05.646Z,0.83
2022-12-08T07:57:32.156Z,1.02
2022-12-08T07:59:58.621Z,1.06
2022-12-08T08:02:26.268Z,1.24
2022-12-08T08:04:53.389Z,1.36
2022-12-08T08:07:20.104Z,1.45
2022-12-08T08:09:46.613Z,1.40
2022-12-08T08:15:01.035Z,1.50
2022-12-08T08:17:28.534Z,1.65
2022-12-08T08:19:55.186Z,1.79
2022-12-08T08:22:21.615Z,1.69
2022-12-08T08:24:48.012Z,1.62
2022-12-08T08:27:14.593Z,1.72
2022-12-08T08:29:41.011Z,1.72
2022-12-08T08:32:07.486Z,1.84
2022-12-08T08:34:34.036Z,1.93
2022-12-08T08:37:00.646Z,2.03
2022-12-08T08:39:27.509Z,2.04
2022-12-08T08:41:53.989Z,1.90
2022-12-08T08:44:23.662Z,1.93
2022-12-08T08:46:50.260Z,2.13
2022-12-08T08:49:16.843Z,2.06
2022-12-08T08:51:43.820Z,2.13
2022-12-08T08:54:14.949Z,2.20
2022-12-08T08:56:41.665Z,2.01
2022-12-08T08:59:09.634Z,2.12
2022-12-08T09:01:36.235Z,2.27
2022-12-08T09:04:02.773Z,2.31
2022-12-08T09:06:35.062Z,2.35
2022-12-08T09:09:01.630Z,2.43
2022-12-08T09:11:28.046Z,2.45
2022-12-08T09:13:54.981Z,2.44
2022-12-08T09:16:22.404Z,2.45
2022-12-08T09:18:52.017Z,2.49
2022-12-08T09:21:24.040Z,2.48
2022-12-08T09:23:56.319Z,2.56
2022-12-08T09:26:24.440Z,2.61
2022-12-08T09:28:52.863Z,2.79
2022-12-08T09:31:21.846Z,2.82
2022-12-08T09:33:51.817Z,2.88
2022-12-08T09:36:18.324Z,2.88
2022-12-08T09:38:44.864Z,2.89
2022-12-08T09:41:20.460Z,2.94
2022-12-08T09:44:07.230Z,2.95
2022-12-08T09:46:35.609Z,2.95
2022-12-08T09:49:03.331Z,2.94
2022-12-08T09:51:40.407Z,2.92
2022-12-08T09:54:19.391Z,3.01
2022-12-08T09:56:47.342Z,3.05
2022-12-08T09:59:49.413Z,3.09
2022-12-08T10:02:22.977Z,3.14
2022-12-08T10:04:49.516Z,3.27
2022-12-08T10:07:41.178Z,3.31
2022-12-08T10:10:36.630Z,3.31
2022-12-08T10:13:16.161Z,3.26
2022-12-08T10:16:00.988Z,3.26
2022-12-08T10:18:31.712Z,3.37
2022-12-08T10:21:11.536Z,3.44
2022-12-08T10:23:40.952Z,3.51
2022-12-08T10:26:12.641Z,3.51
2022-12-08T10:28:44.666Z,3.47
2022-12-08T10:31:17.270Z,3.59
2022-12-08T10:33:44.490Z,3.64
2022-12-08T10:36:11.646Z,3.68
2022-12-08T10:38:42.659Z,3.74
2022-12-08T10:41:09.011Z,3.76
2022-12-08T10:43:44.396Z,3.77
2022-12-08T10:46:15.999Z,3.82
2022-12-08T10:48:52.212Z,3.91
2022-12-08T10:51:35.050Z,3.92
2022-12-08T10:54:01.977Z,4.02
2022-12-08T10:56:32.490Z,4.02
2022-12-08T10:59:06.644Z,4.05
2022-12-08T11:01:37.744Z,4.01
2022-12-08T11:04:07.327Z,4.06
2022-12-08T11:06:39.085Z,4.15
2022-12-08T11:09:17.455Z,4.19
2022-12-08T11:11:54.179Z,4.20
2022-12-08T11:14:26.561Z,4.15
2022-12-08T11:16:56.004Z,4.16
2022-12-08T11:19:27.733Z,4.18
2022-12-08T11:21:54.495Z,4.22
2022-12-08T11:24:22.626Z,4.21
2022-12-08T11:27:00.611Z,4.25
2022-12-08T11:29:32.753Z,4.34
2022-12-08T11:32:12.271Z,4.41
2022-12-08T11:34:44.491Z,4.46
2022-12-08T11:37:35.536Z,4.55
2022-12-08T11:40:08.436Z,4.65
2022-12-08T11:42:40.191Z,4.57
2022-12-08T11:45:14.126Z,4.69
2022-12-08T11:47:48.996Z,4.78
2022-12-08T11:50:25.595Z,4.76
2022-12-08T11:52:52.101Z,4.82
2022-12-08T11:55:37.124Z,4.90
2022-12-08T11:58:15.075Z,4.84
2022-12-08T12:00:41.775Z,4.85
2022-12-08T12:03:36.602Z,4.86
2022-12-08T12:06:46.324Z,4.85
2022-12-08T12:09:23.983Z,4.87
2022-12-08T12:12:19.090Z,4.90
2022-12-08T12:15:29.953Z,5.03
2022-12-08T12:18:05.348Z,5.04
2022-12-08T12:20:42.805Z,5.05
2022-12-08T12:23:24.915Z,5.02
2022-12-08T12:25:57.996Z,5.06
2022-12-08T12:28:27.900Z,5.08
2022-12-08T12:31:02.092Z,5.10
2022-12-08T12:33:31.642Z,5.11
2022-12-08T12:36:03.503Z,5.12
2022-12-08T12:38:54.036Z,5.12
2022-12-08T12:41:31.262Z,5.12
2022-12-08T12:44:12.931Z,5.10
2022-12-08T12:46:48.740Z,5.11
2022-12-08T12:49:53.992Z,5.07
2022-12-08T12:52:23.556Z,5.11
2022-12-08T12:54:49.871Z,5.12
2022-12-08T12:57:21.860Z,5.15
2022-12-08T12:59:55.273Z,5.15
2022-12-08T13:02:25.255Z,5.18
2022-12-08T13:05:01.983Z,5.18
2022-12-08T13:07:33.392Z,5.20
2022-12-08T13:10:39.660Z,5.24
2022-12-08T13:13:18.127Z,5.27
2022-12-08T13:15:54.301Z,5.26
2022-12-08T13:18:25.494Z,5.25
2022-12-08T13:21:09.340Z,5.33
2022-12-08T13:23:48.428Z,5.38
2022-12-08T13:26:28.990Z,5.39
2022-12-08T13:31:29.318Z,5.31
2022-12-08T13:36:13.253Z,5.38
2022-12-08T13:38:45.987Z,5.43
2022-12-08T13:42:35.153Z,5.36
2022-12-08T13:45:39.785Z,5.30
2022-12-08T13:48:25.609Z,5.31
2022-12-08T13:54:56.034Z,5.36
2022-12-08T13:57:07.115Z,5.41
2022-12-08T13:59:34.352Z,5.42
2022-12-08T14:02:22.355Z,5.40
2022-12-08T14:07:37.969Z,5.41
2022-12-08T14:10:24.339Z,5.47
2022-12-08T14:13:03.040Z,5.46
2022-12-08T14:15:37.210Z,5.48
2022-12-08T14:18:04.880Z,5.45
2022-12-08T14:20:46.549Z,5.41
2022-12-08T14:23:19.955Z,5.30
2022-12-08T14:25:48.296Z,5.20
2022-12-08T14:28:15.040Z,5.17
2022-12-08T14:30:41.750Z,5.21
2022-12-08T14:34:11.126Z,5.16
2022-12-08T14:42:52.640Z,5.00
2022-12-08T14:49:26.223Z,4.93
2022-12-08T14:51:52.748Z,4.89
2022-12-08T14:57:03.747Z,4.82
2022-12-08T15:03:15.891Z,4.71
2022-12-08T15:05:43.296Z,4.55
2022-12-08T15:08:13.099Z,4.54
2022-12-08T15:16:03.217Z,4.31
2022-12-08T15:26:19.502Z,4.15
2022-12-08T15:32:32.870Z,3.98
2022-12-08T15:34:52.923Z,4.04
2022-12-08T15:37:41.623Z,3.94
2022-12-08T15:40:49.714Z,3.70
2022-12-08T15:48:09.033Z,3.56
2022-12-08T15:51:28.201Z,3.55
2022-12-08T16:01:08.678Z,3.63
2022-12-08T16:14:48.815Z,3.32
2022-12-08T16:24:12.698Z,3.05
2022-12-08T16:41:13.643Z,3.07
2022-12-08T16:43:40.254Z,3.14
2022-12-08T16:46:06.752Z,2.88
2022-12-08T16:48:33.276Z,3.10
2022-12-08T16:50:59.877Z,3.02
2022-12-08T16:53:26.496Z,2.87
2022-12-08T16:55:53.314Z,2.68
2022-12-08T16:58:20.133Z,2.59
2022-12-08T17:00:47.076Z,2.79
2022-12-08T17:04:07.483Z,2.58
2022-12-08T17:06:35.831Z,2.50
2022-12-08T17:09:02.553Z,2.58
2022-12-08T17:14:44.234Z,2.87
2022-12-08T17:17:14.451Z,2.64
2022-12-08T17:19:40.957Z,2.53
2022-12-08T17:22:07.667Z,2.46
2022-12-08T17:24:34.327Z,2.52
2022-12-08T17:27:17.750Z,2.43
2022-12-08T17:29:44.287Z,2.50
2022-12-08T17:32:51.531Z,2.55
2022-12-08T17:35:16.279Z,2.40
2022-12-08T17:37:43.803Z,2.48
2022-12-08T17:40:10.877Z,2.42
2022-12-08T17:42:41.580Z,2.47
2022-12-08T17:45:11.206Z,2.35
2022-12-08T17:47:38.080Z,2.49
2022-12-08T17:50:06.585Z,2.33
2022-12-08T17:52:35.936Z,2.24
2022-12-08T17:55:22.812Z,2.41
2022-12-08T17:57:49.415Z,2.41
2022-12-08T18:00:16.222Z,2.48
2022-12-08T18:02:42.853Z,2.25
2022-12-08T18:05:09.724Z,2.19
2022-12-08T18:07:36.246Z,2.16
2022-12-08T18:10:04.280Z,2.10
2022-12-08T18:12:31.262Z,2.13
2022-12-08T18:14:57.794Z,2.23
2022-12-08T18:17:24.517Z,2.32
2022-12-08T18:19:51.216Z,2.29
2022-12-08T18:22:17.816Z,2.25
2022-12-08T18:24:44.659Z,2.36
2022-12-08T18:27:11.280Z,2.19
2022-12-08T18:29:38.918Z,2.04
2022-12-08T18:32:05.920Z,1.95
2022-12-08T18:34:32.787Z,2.17
2022-12-08T18:36:59.622Z,2.22
2022-12-08T18:39:28.883Z,2.17
2022-12-08T18:41:57.298Z,2.26
2022-12-08T18:44:23.738Z,2.24
2022-12-08T18:46:50.470Z,2.35
2022-12-08T18:49:19.105Z,2.01
2022-12-08T18:51:46.103Z,1.98
2022-12-08T18:54:13.344Z,2.21
2022-12-08T18:56:40.176Z,2.20
2022-12-08T18:59:10.390Z,2.31
2022-12-08T19:01:39.113Z,2.12
2022-12-08T19:06:55.589Z,1.91
2022-12-08T19:09:22.702Z,2.21
2022-12-08T19:11:49.186Z,2.07
2022-12-08T19:14:15.616Z,2.02
2022-12-08T19:16:42.111Z,2.14
2022-12-08T19:19:08.508Z,2.22
2022-12-08T19:21:35.099Z,2.07
2022-12-08T19:24:02.231Z,2.16
2022-12-08T19:26:28.889Z,2.26
2022-12-08T19:28:55.387Z,2.08
2022-12-08T19:31:22.141Z,1.99
2022-12-08T19:33:48.778Z,2.13
2022-12-08T19:36:18.072Z,2.16
2022-12-08T19:39:03.660Z,2.15
2022-12-08T19:41:48.571Z,2.08
2022-12-08T19:44:32.835Z,2.31
2022-12-08T19:46:59.466Z,2.26
2022-12-08T19:49:26.028Z,2.32
2022-12-08T19:51:52.560Z,2.25
2022-12-08T19:54:19.100Z,2.25
2022-12-08T19:56:45.589Z,2.19
2022-12-08T19:59:13.366Z,2.12
2022-12-08T20:01:39.845Z,2.24
2022-12-08T20:04:06.369Z,2.31
2022-12-08T20:06:32.846Z,2.21
2022-12-08T20:09:00.364Z,2.16
2022-12-08T20:11:26.829Z,2.27
2022-12-08T20:13:53.366Z,2.32
2022-12-08T20:16:20.002Z,2.37
2022-12-08T20:18:48.492Z,2.20
2022-12-08T20:21:15.184Z,2.19
2022-12-08T20:23:41.577Z,2.27
2022-12-08T20:26:11.948Z,2.24
2022-12-08T20:28:38.711Z,1.96
2022-12-08T20:31:05.546Z,2.05
2022-12-08T20:33:34.325Z,2.33
2022-12-08T20:36:03.718Z,2.26
2022-12-08T20:38:30.644Z,2.18
2022-12-08T20:40:58.250Z,2.25
2022-12-08T20:43:25.507Z,2.21
2022-12-08T20:45:51.965Z,1.95
2022-12-08T20:48:18.542Z,1.96
2022-12-08T20:50:45.093Z,2.07
2022-12-08T20:53:11.614Z,2.05
2022-12-08T20:55:41.996Z,2.10
2022-12-08T20:58:34.487Z,2.12
2022-12-08T21:01:23.213Z,2.16
2022-12-08T21:06:55.735Z,2.06
2022-12-08T21:12:48.866Z,2.32
2022-12-08T21:15:49.544Z,2.32
2022-12-08T21:21:31.420Z,1.91
2022-12-08T21:27:40.324Z,2.06
2022-12-08T21:30:33.087Z,2.19
2022-12-08T21:33:25.878Z,2.30
2022-12-08T21:39:15.032Z,2.27
2022-12-08T21:42:00.341Z,2.01
2022-12-08T21:44:44.148Z,1.84
2022-12-08T21:50:02.307Z,1.78
2022-12-08T21:52:28.864Z,1.71
2022-12-08T21:54:55.523Z,1.79
2022-12-08T21:57:22.208Z,1.89
2022-12-08T21:59:48.798Z,2.03
2022-12-08T22:02:20.829Z,2.18
2022-12-08T22:04:49.990Z,1.85
2022-12-08T22:07:17.059Z,1.90
2022-12-08T22:09:43.776Z,1.88
2022-12-08T22:12:11.888Z,2.14
2022-12-08T22:14:39.947Z,2.06
2022-12-08T22:17:07.188Z,1.99
2022-12-08T22:19:34.144Z,1.88
2022-12-08T22:22:01.086Z,2.19
2022-12-08T22:24:30.255Z,2.22
2022-12-08T22:26:56.787Z,2.19
2022-12-08T22:29:23.364Z,2.17
2022-12-08T22:31:49.995Z,2.15
2022-12-08T22:34:16.690Z,2.20
2022-12-08T22:36:44.420Z,2.40
2022-12-08T22:39:11.130Z,2.28
2022-12-08T22:41:37.794Z,2.38
2022-12-08T22:44:07.976Z,2.32
2022-12-08T22:46:35.031Z,2.25
2022-12-08T22:49:01.591Z,2.36
2022-12-08T22:51:28.037Z,2.37
2022-12-08T22:53:54.530Z,2.22
2022-12-08T22:56:21.015Z,2.25
2022-12-08T22:58:47.827Z,2.22
2022-12-08T23:01:26.828Z,2.14
2022-12-08T23:03:53.545Z,2.13
2022-12-08T23:06:20.392Z,2.16
2022-12-08T23:08:47.276Z,2.24
2022-12-08T23:11:14.400Z,2.32
2022-12-08T23:13:40.948Z,2.48
2022-12-08T23:16:09.185Z,2.32
2022-12-08T23:18:36.579Z,2.19
2022-12-08T23:21:09.126Z,2.28
2022-12-08T23:23:36.146Z,2.17
2022-12-08T23:26:03.460Z,2.14
2022-12-08T23:28:30.150Z,2.27
2022-12-08T23:30:56.800Z,2.43
2022-12-08T23:33:23.399Z,2.42
2022-12-08T23:35:57.656Z,2.36
2022-12-08T23:38:25.393Z,2.43
2022-12-08T23:40:52.684Z,2.50
2022-12-08T23:43:19.362Z,2.63
2022-12-08T23:45:49.066Z,2.49
2022-12-08T23:48:15.567Z,2.43
2022-12-08T23:50:42.030Z,2.52
2022-12-08T23:53:08.523Z,2.66
2022-12-08T23:55:35.202Z,2.68
2022-12-08T23:58:01.921Z,2.56
